Startpagina
METAR-TAF:

METAR-TAF

Vliegvelden :

Koeweit, Koeweit

breedte: 29-13N, lengte: 047-59E, hoogte: 55 m

Actueel weer

Dit bericht is 1 uur en het 6 minuten geleden gemaakt, om 13:00 UTC
Wind 9 kt uit het westnoordwesten
Temperatuur 25°C
Vochtigheid 28%
Druk 1011 hPa
Zicht 10 km of meer
geen wolken onder 1500 m en geen cumulonimbus

METAR: OKBK 261300Z 30009KT CAVOK 25/05 Q1011 NOSIG

Tijdstip: 17:06 (14:06 UTC)

Verwachting

Dit bericht is 3 uur en het 21 minuten geleden gemaakt, om 10:45 UTC
Verwachting geldig van 26 om 12 UTC tot 27 om 18 UTC
Wind 15 kt uit het noorden
Zicht: 8000 m
Tijdelijke
van 26 om 21 UTC tot 27 om 03 UTC
Wind 3 kt uit variabele richting

TAF: OKBK 261045Z 2612/2718 35015KT 8000 NSC TEMPO 2621/2703 VRB03KT

Waarnemingen en weersverwachtingen van meer dan 4000 vliegvelden (METAR en TAF).

De beschikbare stations zijn de gele en rode punten op de kaart.

Ga met uw muis naar het station om de naam te zien.

Klik dan om waarnemingen en weersverwachtingen te zien.

kaart wijzigen: klik op de groene knoppen met een zwart kruis om in te zoomen, op de groene knop met een streepje om uit te zoomen of op de groene pijlen voor aangrenzende kaarten.


METAR-TAF: